Airports Faroe Islands Vagar Airport

Vagar Airport (EKVG / FAE)

Facts about Vagar Airport

Name Vagar Airport
City Vagar
Country Faroe Islands
ICAO code EKVG
IATA code FAE
Elevation 85.3440 meters (280 feet)

Weather

METAR

Metar data retrieved Friday, 19 July 2024 at 23:25 UTC (3 minutes ago)

EKVG 192320Z AUTO 11009KT 3300 -DZ BR OVC004/// 11/10 Q1003 RMK OVC000/// WIND SKEID 12016KT

Live traffic

Navigraph Charts (account required)